CST,Max TemperatureF,Mean TemperatureF,Min TemperatureF,Max Dew PointF,MeanDew PointF,Min DewpointF,Max Humidity, Mean Humidity, Min Humidity, Max Sea Level PressureIn, Mean Sea Level PressureIn, Min Sea Level PressureIn, Max VisibilityMiles, Mean VisibilityMiles, Min VisibilityMiles, Max Wind SpeedMPH, Mean Wind SpeedMPH, Max Gust SpeedMPH,PrecipitationIn, CloudCover, Events, WindDirDegrees
2013-1-1,26,18,7,21,12,5,89,71,47,30.22,30.16,30.09,10,10,10,10,6,,0.00,2,,311
2013-1-2,23,14,4,16,10,2,92,80,63,30.24,30.18,30.14,10,10,10,16,6,20,0.00,0,,199
2013-1-3,32,25,17,28,21,14,90,82,68,30.30,30.21,30.13,10,10,7,20,11,23,0.00,7,,252
2013-1-4,30,20,10,23,17,8,93,83,73,30.30,30.26,30.22,10,10,10,22,12,28,0.00,0,,232
2013-1-5,34,26,17,32,24,15,99,88,74,30.27,30.16,29.99,10,9,0,21,8,28,0.01,4,Rain-Snow,197
2013-1-6,33,24,14,32,22,13,95,84,71,30.36,30.14,29.96,10,10,7,22,14,29,0.00,4,,262
2013-1-7,36,24,12,27,20,10,95,84,64,30.37,30.27,30.14,10,9,7,22,9,29,0.00,0,,183
2013-1-8,41,33,25,32,27,22,93,81,67,30.20,30.14,30.08,10,9,5,17,9,21,0.00,1,,175
2013-1-9,50,38,24,33,27,19,93,69,32,30.51,30.30,30.07,10,10,10,21,13,29,0.00,1,,249
2013-1-10,43,32,22,43,29,20,100,83,51,30.50,30.26,29.89,10,8,2,20,8,25,0.33,4,Rain,100
2013-1-11,53,48,42,53,48,42,100,93,84,29.88,29.78,29.70,10,8,2,21,13,29,0.18,5,Rain,181
2013-1-12,52,42,31,48,39,27,93,84,72,29.97,29.89,29.78,10,9,4,21,14,25,0.07,3,Rain,264
2013-1-13,32,23,14,31,21,8,98,89,76,30.27,30.04,29.88,10,8,1,22,10,25,0.08,7,Snow,294
2013-1-14,23,18,12,15,11,8,93,79,65,30.47,30.41,30.29,10,10,10,13,6,18,0.00,0,,295
2013-1-15,29,20,11,20,16,10,95,83,63,30.44,30.33,30.12,10,10,7,6,1,,0.01,0,,82
2013-1-16,35,25,15,28,21,13,93,80,60,30.12,30.02,29.90,10,9,7,23,7,31,0.01,3,,235
2013-1-17,34,25,16,29,19,12,88,69,44,30.42,30.27,30.07,10,10,10,15,7,21,0.00,1,,314
2013-1-18,39,27,15,28,22,13,89,74,57,30.45,30.24,29.99,10,10,10,28,12,36,0.00,0,,195
2013-1-19,48,40,30,36,31,16,81,71,53,30.00,29.90,29.79,10,10,10,31,20,50,0.00,0,,224
2013-1-20,29,22,14,17,7,4,70,58,49,30.31,30.22,29.97,10,10,10,28,16,36,0.00,3,,287
2013-1-21,15,10,4,9,-1,-8,80,59,41,30.30,30.22,30.16,10,10,3,28,15,34,0.00,4,Snow,277
2013-1-22,12,6,0,0,-2,-7,83,65,49,30.41,30.35,30.29,10,9,2,16,10,21,0.00,4,Snow,273
2013-1-23,23,18,12,13,5,0,75,59,51,30.35,30.23,30.11,10,10,4,17,8,25,0.00,8,Snow,258
2013-1-24,23,15,7,7,1,-4,67,53,34,30.62,30.49,30.32,10,10,10,14,10,22,0.00,0,,51
2013-1-25,32,25,18,19,15,7,89,68,54,30.37,30.12,29.99,10,9,2,16,10,23,0.00,7,Snow,214
2013-1-26,28,20,11,18,11,5,82,63,38,30.40,30.34,30.17,10,10,10,12,5,,0.00,2,,327
2013-1-27,37,30,23,38,24,16,100,79,61,30.39,30.20,29.95,10,8,0,17,10,25,0.09,5,Fog-Rain,134
2013-1-28,52,44,37,52,46,38,100,99,97,29.95,29.91,29.83,7,2,0,23,13,32,0.01,8,Fog-Rain,185
2013-1-29,60,55,50,58,55,50,100,96,90,29.83,29.63,29.42,10,5,1,25,17,33,0.98,8,Rain,187
2013-1-30,50,36,21,50,36,17,100,93,79,29.67,29.39,29.24,10,6,1,29,12,38,0.28,8,Rain-Snow,252
2013-1-31,21,13,5,16,9,-1,86,75,68,30.18,29.91,29.68,10,9,2,31,22,37,0.00,8,Snow,272